sensor_id;sensor_type;location;lat;lon;timestamp;P1;durP1;ratioP1;P2;durP2;ratioP2
61960;SDS011;47923;42.506;24.192;2023-12-14T00:00:11;105.38;;;64.50;;
61960;SDS011;47923;42.506;24.192;2023-12-14T00:02:37;101.70;;;63.85;;
61960;SDS011;47923;42.506;24.192;2023-12-14T00:05:03;98.13;;;62.13;;
61960;SDS011;47923;42.506;24.192;2023-12-14T00:07:28;115.75;;;69.50;;
61960;SDS011;47923;42.506;24.192;2023-12-14T00:09:54;101.60;;;64.50;;
61960;SDS011;47923;42.506;24.192;2023-12-14T00:12:19;103.38;;;66.15;;
61960;SDS011;47923;42.506;24.192;2023-12-14T00:14:45;109.93;;;69.00;;
61960;SDS011;47923;42.506;24.192;2023-12-14T00:17:10;94.38;;;61.67;;
61960;SDS011;47923;42.506;24.192;2023-12-14T00:19:35;101.20;;;62.60;;
61960;SDS011;47923;42.506;24.192;2023-12-14T00:22:01;91.47;;;58.70;;
61960;SDS011;47923;42.506;24.192;2023-12-14T00:24:27;93.93;;;58.55;;
61960;SDS011;47923;42.506;24.192;2023-12-14T00:26:52;99.75;;;62.78;;
61960;SDS011;47923;42.506;24.192;2023-12-14T00:29:17;89.93;;;58.92;;
61960;SDS011;47923;42.506;24.192;2023-12-14T00:31:43;107.45;;;65.15;;
61960;SDS011;47923;42.506;24.192;2023-12-14T00:34:08;110.95;;;63.90;;
61960;SDS011;47923;42.506;24.192;2023-12-14T00:36:34;101.15;;;60.58;;
61960;SDS011;47923;42.506;24.192;2023-12-14T00:38:59;105.03;;;63.35;;
61960;SDS011;47923;42.506;24.192;2023-12-14T00:41:25;99.25;;;58.85;;
61960;SDS011;47923;42.506;24.192;2023-12-14T00:43:50;96.13;;;58.45;;
61960;SDS011;47923;42.506;24.192;2023-12-14T00:46:16;93.05;;;57.03;;
61960;SDS011;47923;42.506;24.192;2023-12-14T00:48:41;76.40;;;49.88;;
61960;SDS011;47923;42.506;24.192;2023-12-14T00:51:07;93.38;;;57.47;;
61960;SDS011;47923;42.506;24.192;2023-12-14T00:53:32;95.07;;;60.42;;
61960;SDS011;47923;42.506;24.192;2023-12-14T00:55:57;103.95;;;64.13;;
61960;SDS011;47923;42.506;24.192;2023-12-14T00:58:23;105.38;;;61.05;;
61960;SDS011;47923;42.506;24.192;2023-12-14T01:00:48;102.47;;;60.60;;
61960;SDS011;47923;42.506;24.192;2023-12-14T01:03:14;97.63;;;60.78;;
61960;SDS011;47923;42.506;24.192;2023-12-14T01:05:39;100.15;;;62.38;;
61960;SDS011;47923;42.506;24.192;2023-12-14T01:08:05;112.28;;;64.95;;
61960;SDS011;47923;42.506;24.192;2023-12-14T01:10:30;111.47;;;70.03;;
61960;SDS011;47923;42.506;24.192;2023-12-14T01:12:56;100.55;;;64.88;;
61960;SDS011;47923;42.506;24.192;2023-12-14T01:15:21;104.40;;;62.47;;
61960;SDS011;47923;42.506;24.192;2023-12-14T01:17:47;105.95;;;65.57;;
61960;SDS011;47923;42.506;24.192;2023-12-14T01:20:12;106.10;;;65.68;;
61960;SDS011;47923;42.506;24.192;2023-12-14T01:22:38;113.75;;;68.13;;
61960;SDS011;47923;42.506;24.192;2023-12-14T01:25:03;109.85;;;68.13;;
61960;SDS011;47923;42.506;24.192;2023-12-14T01:27:29;114.25;;;71.68;;
61960;SDS011;47923;42.506;24.192;2023-12-14T01:29:54;130.13;;;77.82;;
61960;SDS011;47923;42.506;24.192;2023-12-14T01:32:20;119.03;;;73.40;;
61960;SDS011;47923;42.506;24.192;2023-12-14T01:34:45;109.85;;;68.45;;
61960;SDS011;47923;42.506;24.192;2023-12-14T01:37:10;120.13;;;72.78;;
61960;SDS011;47923;42.506;24.192;2023-12-14T01:39:36;88.72;;;53.80;;
61960;SDS011;47923;42.506;24.192;2023-12-14T01:42:01;93.47;;;56.58;;
61960;SDS011;47923;42.506;24.192;2023-12-14T01:44:27;86.68;;;52.17;;
61960;SDS011;47923;42.506;24.192;2023-12-14T01:46:52;86.28;;;50.85;;
61960;SDS011;47923;42.506;24.192;2023-12-14T01:49:18;77.13;;;50.28;;
61960;SDS011;47923;42.506;24.192;2023-12-14T01:51:43;99.28;;;58.92;;
61960;SDS011;47923;42.506;24.192;2023-12-14T01:54:09;90.65;;;55.08;;
61960;SDS011;47923;42.506;24.192;2023-12-14T01:56:34;71.55;;;45.50;;
61960;SDS011;47923;42.506;24.192;2023-12-14T01:58:59;67.25;;;41.22;;
61960;SDS011;47923;42.506;24.192;2023-12-14T02:01:36;52.33;;;32.30;;
61960;SDS011;47923;42.506;24.192;2023-12-14T02:04:06;55.53;;;32.35;;
61960;SDS011;47923;42.506;24.192;2023-12-14T02:06:32;46.25;;;26.73;;
61960;SDS011;47923;42.506;24.192;2023-12-14T02:08:58;70.13;;;44.95;;
61960;SDS011;47923;42.506;24.192;2023-12-14T02:11:23;80.40;;;52.35;;
61960;SDS011;47923;42.506;24.192;2023-12-14T02:13:49;83.32;;;52.67;;
61960;SDS011;47923;42.506;24.192;2023-12-14T02:16:14;80.43;;;49.92;;
61960;SDS011;47923;42.506;24.192;2023-12-14T02:18:40;77.90;;;48.13;;
61960;SDS011;47923;42.506;24.192;2023-12-14T02:21:05;79.13;;;50.83;;
61960;SDS011;47923;42.506;24.192;2023-12-14T02:23:31;80.80;;;51.65;;
61960;SDS011;47923;42.506;24.192;2023-12-14T02:25:56;81.72;;;52.40;;
61960;SDS011;47923;42.506;24.192;2023-12-14T02:28:22;83.53;;;50.25;;
61960;SDS011;47923;42.506;24.192;2023-12-14T02:30:47;80.65;;;50.55;;
61960;SDS011;47923;42.506;24.192;2023-12-14T02:33:13;91.00;;;56.88;;
61960;SDS011;47923;42.506;24.192;2023-12-14T02:35:38;104.22;;;61.05;;
61960;SDS011;47923;42.506;24.192;2023-12-14T02:38:05;105.65;;;63.65;;
61960;SDS011;47923;42.506;24.192;2023-12-14T02:40:30;98.35;;;58.55;;
61960;SDS011;47923;42.506;24.192;2023-12-14T02:42:56;106.35;;;63.35;;
61960;SDS011;47923;42.506;24.192;2023-12-14T02:45:21;103.40;;;64.07;;
61960;SDS011;47923;42.506;24.192;2023-12-14T02:47:47;91.28;;;53.30;;
61960;SDS011;47923;42.506;24.192;2023-12-14T02:50:14;90.78;;;55.72;;
61960;SDS011;47923;42.506;24.192;2023-12-14T02:52:39;86.70;;;55.80;;
61960;SDS011;47923;42.506;24.192;2023-12-14T02:55:05;86.68;;;53.80;;
61960;SDS011;47923;42.506;24.192;2023-12-14T02:57:31;82.63;;;51.72;;
61960;SDS011;47923;42.506;24.192;2023-12-14T02:59:57;84.40;;;54.08;;
61960;SDS011;47923;42.506;24.192;2023-12-14T03:02:22;84.88;;;51.20;;
61960;SDS011;47923;42.506;24.192;2023-12-14T03:04:48;90.28;;;54.40;;
61960;SDS011;47923;42.506;24.192;2023-12-14T03:07:13;83.68;;;54.30;;
61960;SDS011;47923;42.506;24.192;2023-12-14T03:09:39;81.07;;;50.88;;
61960;SDS011;47923;42.506;24.192;2023-12-14T03:12:09;95.15;;;58.53;;
61960;SDS011;47923;42.506;24.192;2023-12-14T03:14:36;80.03;;;48.03;;
61960;SDS011;47923;42.506;24.192;2023-12-14T03:17:01;88.60;;;53.85;;
61960;SDS011;47923;42.506;24.192;2023-12-14T03:19:27;83.35;;;54.38;;
61960;SDS011;47923;42.506;24.192;2023-12-14T03:21:53;121.82;;;77.97;;
61960;SDS011;47923;42.506;24.192;2023-12-14T03:24:19;121.43;;;76.78;;
61960;SDS011;47923;42.506;24.192;2023-12-14T03:26:44;87.43;;;57.67;;
61960;SDS011;47923;42.506;24.192;2023-12-14T03:29:10;110.57;;;65.68;;
61960;SDS011;47923;42.506;24.192;2023-12-14T03:31:35;110.90;;;69.72;;
61960;SDS011;47923;42.506;24.192;2023-12-14T03:34:01;93.90;;;58.92;;
61960;SDS011;47923;42.506;24.192;2023-12-14T03:36:27;92.45;;;58.20;;
61960;SDS011;47923;42.506;24.192;2023-12-14T03:38:53;109.57;;;71.07;;
61960;SDS011;47923;42.506;24.192;2023-12-14T03:41:20;103.97;;;62.95;;
61960;SDS011;47923;42.506;24.192;2023-12-14T03:43:46;102.78;;;63.40;;
61960;SDS011;47923;42.506;24.192;2023-12-14T03:46:11;125.05;;;81.68;;
61960;SDS011;47923;42.506;24.192;2023-12-14T03:48:37;149.05;;;96.00;;
61960;SDS011;47923;42.506;24.192;2023-12-14T03:51:03;119.70;;;75.95;;
61960;SDS011;47923;42.506;24.192;2023-12-14T03:53:29;120.45;;;69.07;;
61960;SDS011;47923;42.506;24.192;2023-12-14T03:55:55;142.82;;;87.18;;
61960;SDS011;47923;42.506;24.192;2023-12-14T03:58:20;109.93;;;75.35;;
61960;SDS011;47923;42.506;24.192;2023-12-14T04:00:46;86.70;;;54.58;;
61960;SDS011;47923;42.506;24.192;2023-12-14T04:03:12;87.95;;;54.95;;
61960;SDS011;47923;42.506;24.192;2023-12-14T04:05:37;83.53;;;52.65;;
61960;SDS011;47923;42.506;24.192;2023-12-14T04:08:03;86.93;;;56.13;;
61960;SDS011;47923;42.506;24.192;2023-12-14T04:10:29;78.38;;;50.60;;
61960;SDS011;47923;42.506;24.192;2023-12-14T04:12:55;81.00;;;48.30;;
61960;SDS011;47923;42.506;24.192;2023-12-14T04:15:20;75.13;;;47.58;;
61960;SDS011;47923;42.506;24.192;2023-12-14T04:17:46;95.68;;;59.50;;
61960;SDS011;47923;42.506;24.192;2023-12-14T04:20:12;65.72;;;41.92;;
61960;SDS011;47923;42.506;24.192;2023-12-14T04:22:38;68.82;;;43.72;;
61960;SDS011;47923;42.506;24.192;2023-12-14T04:25:03;63.20;;;40.28;;
61960;SDS011;47923;42.506;24.192;2023-12-14T04:27:29;73.88;;;50.20;;
61960;SDS011;47923;42.506;24.192;2023-12-14T04:29:55;80.80;;;55.40;;
61960;SDS011;47923;42.506;24.192;2023-12-14T04:32:20;90.18;;;58.13;;
61960;SDS011;47923;42.506;24.192;2023-12-14T04:34:46;109.57;;;72.50;;
61960;SDS011;47923;42.506;24.192;2023-12-14T04:37:12;110.28;;;75.82;;
61960;SDS011;47923;42.506;24.192;2023-12-14T04:39:37;94.63;;;62.15;;
61960;SDS011;47923;42.506;24.192;2023-12-14T04:42:03;85.60;;;58.17;;
61960;SDS011;47923;42.506;24.192;2023-12-14T04:44:28;83.57;;;51.85;;
61960;SDS011;47923;42.506;24.192;2023-12-14T04:46:54;94.90;;;58.17;;
61960;SDS011;47923;42.506;24.192;2023-12-14T04:49:19;39.65;;;27.60;;
61960;SDS011;47923;42.506;24.192;2023-12-14T04:51:45;38.42;;;28.67;;
61960;SDS011;47923;42.506;24.192;2023-12-14T04:54:10;55.38;;;32.95;;
61960;SDS011;47923;42.506;24.192;2023-12-14T04:56:36;56.30;;;36.10;;
61960;SDS011;47923;42.506;24.192;2023-12-14T04:59:01;53.35;;;33.50;;
61960;SDS011;47923;42.506;24.192;2023-12-14T05:01:27;84.03;;;50.08;;
61960;SDS011;47923;42.506;24.192;2023-12-14T05:03:53;82.32;;;51.10;;
61960;SDS011;47923;42.506;24.192;2023-12-14T05:06:19;102.35;;;63.05;;
61960;SDS011;47923;42.506;24.192;2023-12-14T05:08:44;99.95;;;61.78;;
61960;SDS011;47923;42.506;24.192;2023-12-14T05:11:10;104.07;;;61.28;;
61960;SDS011;47923;42.506;24.192;2023-12-14T05:13:37;131.07;;;81.30;;
61960;SDS011;47923;42.506;24.192;2023-12-14T05:16:02;141.23;;;89.32;;
61960;SDS011;47923;42.506;24.192;2023-12-14T05:18:28;173.90;;;106.93;;
61960;SDS011;47923;42.506;24.192;2023-12-14T05:20:54;134.80;;;86.47;;
61960;SDS011;47923;42.506;24.192;2023-12-14T05:23:20;131.18;;;83.85;;
61960;SDS011;47923;42.506;24.192;2023-12-14T05:25:46;129.23;;;82.53;;
61960;SDS011;47923;42.506;24.192;2023-12-14T05:28:12;120.00;;;78.82;;
61960;SDS011;47923;42.506;24.192;2023-12-14T05:30:38;128.15;;;84.07;;
61960;SDS011;47923;42.506;24.192;2023-12-14T05:33:03;131.27;;;82.53;;
61960;SDS011;47923;42.506;24.192;2023-12-14T05:35:29;134.52;;;87.10;;
61960;SDS011;47923;42.506;24.192;2023-12-14T05:37:54;166.90;;;110.75;;
61960;SDS011;47923;42.506;24.192;2023-12-14T05:40:20;161.10;;;105.93;;
61960;SDS011;47923;42.506;24.192;2023-12-14T05:42:45;138.55;;;91.20;;
61960;SDS011;47923;42.506;24.192;2023-12-14T05:45:10;153.82;;;97.50;;
61960;SDS011;47923;42.506;24.192;2023-12-14T05:47:36;147.88;;;96.53;;
61960;SDS011;47923;42.506;24.192;2023-12-14T05:50:02;143.90;;;95.68;;
61960;SDS011;47923;42.506;24.192;2023-12-14T05:52:28;151.98;;;97.88;;
61960;SDS011;47923;42.506;24.192;2023-12-14T05:54:54;132.65;;;87.32;;
61960;SDS011;47923;42.506;24.192;2023-12-14T05:57:19;141.50;;;94.85;;
61960;SDS011;47923;42.506;24.192;2023-12-14T05:59:45;145.98;;;98.07;;
61960;SDS011;47923;42.506;24.192;2023-12-14T06:02:10;177.65;;;115.68;;
61960;SDS011;47923;42.506;24.192;2023-12-14T06:04:35;166.32;;;110.07;;
61960;SDS011;47923;42.506;24.192;2023-12-14T06:07:01;200.45;;;121.75;;
61960;SDS011;47923;42.506;24.192;2023-12-14T06:09:26;173.88;;;107.93;;
61960;SDS011;47923;42.506;24.192;2023-12-14T06:12:01;214.82;;;131.35;;
61960;SDS011;47923;42.506;24.192;2023-12-14T06:14:27;132.77;;;88.55;;
61960;SDS011;47923;42.506;24.192;2023-12-14T06:16:53;114.60;;;72.18;;
61960;SDS011;47923;42.506;24.192;2023-12-14T06:19:18;116.65;;;75.93;;
61960;SDS011;47923;42.506;24.192;2023-12-14T06:21:44;127.20;;;83.25;;
61960;SDS011;47923;42.506;24.192;2023-12-14T06:24:09;177.50;;;108.20;;
61960;SDS011;47923;42.506;24.192;2023-12-14T06:26:35;242.70;;;145.35;;
61960;SDS011;47923;42.506;24.192;2023-12-14T06:29:05;224.90;;;135.02;;
61960;SDS011;47923;42.506;24.192;2023-12-14T06:31:30;166.93;;;106.13;;
61960;SDS011;47923;42.506;24.192;2023-12-14T06:33:56;143.95;;;94.85;;
61960;SDS011;47923;42.506;24.192;2023-12-14T06:36:22;186.07;;;120.30;;
61960;SDS011;47923;42.506;24.192;2023-12-14T06:38:51;249.23;;;153.80;;
61960;SDS011;47923;42.506;24.192;2023-12-14T06:41:21;242.88;;;156.75;;
61960;SDS011;47923;42.506;24.192;2023-12-14T06:43:47;269.75;;;167.80;;
61960;SDS011;47923;42.506;24.192;2023-12-14T06:46:13;282.10;;;168.02;;
61960;SDS011;47923;42.506;24.192;2023-12-14T06:48:39;276.17;;;160.32;;
61960;SDS011;47923;42.506;24.192;2023-12-14T06:51:04;251.82;;;147.90;;
61960;SDS011;47923;42.506;24.192;2023-12-14T06:53:30;213.68;;;132.85;;
61960;SDS011;47923;42.506;24.192;2023-12-14T06:55:55;208.40;;;125.47;;
61960;SDS011;47923;42.506;24.192;2023-12-14T06:58:21;205.52;;;130.93;;
61960;SDS011;47923;42.506;24.192;2023-12-14T07:00:46;182.95;;;117.22;;
61960;SDS011;47923;42.506;24.192;2023-12-14T07:03:12;151.65;;;97.38;;
61960;SDS011;47923;42.506;24.192;2023-12-14T07:05:38;176.52;;;108.13;;
61960;SDS011;47923;42.506;24.192;2023-12-14T07:08:04;152.50;;;97.32;;
61960;SDS011;47923;42.506;24.192;2023-12-14T07:10:29;166.60;;;107.60;;
61960;SDS011;47923;42.506;24.192;2023-12-14T07:12:55;195.05;;;125.18;;
61960;SDS011;47923;42.506;24.192;2023-12-14T07:15:21;188.50;;;123.10;;
61960;SDS011;47923;42.506;24.192;2023-12-14T07:17:46;226.45;;;144.65;;
61960;SDS011;47923;42.506;24.192;2023-12-14T07:20:12;238.90;;;150.40;;
61960;SDS011;47923;42.506;24.192;2023-12-14T07:22:37;305.10;;;188.40;;
61960;SDS011;47923;42.506;24.192;2023-12-14T07:25:03;258.95;;;157.00;;
61960;SDS011;47923;42.506;24.192;2023-12-14T07:27:29;243.27;;;149.32;;
61960;SDS011;47923;42.506;24.192;2023-12-14T07:29:54;220.75;;;136.68;;
61960;SDS011;47923;42.506;24.192;2023-12-14T07:32:20;202.95;;;129.60;;
61960;SDS011;47923;42.506;24.192;2023-12-14T07:34:46;174.13;;;116.70;;
61960;SDS011;47923;42.506;24.192;2023-12-14T07:37:12;215.52;;;138.40;;
61960;SDS011;47923;42.506;24.192;2023-12-14T07:39:38;216.05;;;138.30;;
61960;SDS011;47923;42.506;24.192;2023-12-14T07:42:04;179.82;;;119.57;;
61960;SDS011;47923;42.506;24.192;2023-12-14T07:44:30;145.80;;;99.15;;
61960;SDS011;47923;42.506;24.192;2023-12-14T07:46:59;129.75;;;89.07;;
61960;SDS011;47923;42.506;24.192;2023-12-14T07:49:25;169.65;;;115.53;;
61960;SDS011;47923;42.506;24.192;2023-12-14T07:51:51;129.43;;;88.80;;
61960;SDS011;47923;42.506;24.192;2023-12-14T07:54:17;189.45;;;123.32;;
61960;SDS011;47923;42.506;24.192;2023-12-14T07:56:43;150.48;;;102.65;;
61960;SDS011;47923;42.506;24.192;2023-12-14T07:59:10;124.32;;;83.68;;
61960;SDS011;47923;42.506;24.192;2023-12-14T08:01:36;137.55;;;93.32;;
61960;SDS011;47923;42.506;24.192;2023-12-14T08:04:02;134.93;;;94.00;;
61960;SDS011;47923;42.506;24.192;2023-12-14T08:06:28;143.68;;;93.53;;
61960;SDS011;47923;42.506;24.192;2023-12-14T08:08:54;196.65;;;120.97;;
61960;SDS011;47923;42.506;24.192;2023-12-14T08:11:23;151.50;;;108.82;;
61960;SDS011;47923;42.506;24.192;2023-12-14T08:13:48;156.75;;;108.82;;
61960;SDS011;47923;42.506;24.192;2023-12-14T08:16:14;131.30;;;86.90;;
61960;SDS011;47923;42.506;24.192;2023-12-14T08:18:40;192.60;;;126.90;;
61960;SDS011;47923;42.506;24.192;2023-12-14T08:21:07;160.85;;;113.70;;
61960;SDS011;47923;42.506;24.192;2023-12-14T08:23:32;155.10;;;107.97;;
61960;SDS011;47923;42.506;24.192;2023-12-14T08:25:58;179.00;;;123.72;;
61960;SDS011;47923;42.506;24.192;2023-12-14T08:28:24;134.57;;;97.53;;
61960;SDS011;47923;42.506;24.192;2023-12-14T08:30:50;162.52;;;107.30;;
61960;SDS011;47923;42.506;24.192;2023-12-14T08:33:16;495.50;;;310.02;;
61960;SDS011;47923;42.506;24.192;2023-12-14T08:35:41;156.82;;;108.75;;
61960;SDS011;47923;42.506;24.192;2023-12-14T08:38:07;223.07;;;146.48;;
61960;SDS011;47923;42.506;24.192;2023-12-14T08:40:32;305.17;;;204.02;;
61960;SDS011;47923;42.506;24.192;2023-12-14T08:42:58;196.50;;;129.88;;
61960;SDS011;47923;42.506;24.192;2023-12-14T08:45:23;218.02;;;139.27;;
61960;SDS011;47923;42.506;24.192;2023-12-14T08:47:49;195.10;;;138.40;;
61960;SDS011;47923;42.506;24.192;2023-12-14T08:50:14;181.60;;;132.63;;
61960;SDS011;47923;42.506;24.192;2023-12-14T08:52:40;180.95;;;131.18;;
61960;SDS011;47923;42.506;24.192;2023-12-14T08:55:06;192.70;;;135.27;;
61960;SDS011;47923;42.506;24.192;2023-12-14T08:57:33;157.93;;;116.22;;
61960;SDS011;47923;42.506;24.192;2023-12-14T08:59:59;148.32;;;117.18;;
61960;SDS011;47923;42.506;24.192;2023-12-14T09:02:24;143.27;;;105.85;;
61960;SDS011;47923;42.506;24.192;2023-12-14T09:04:50;163.13;;;125.88;;
61960;SDS011;47923;42.506;24.192;2023-12-14T09:07:16;178.95;;;136.15;;
61960;SDS011;47923;42.506;24.192;2023-12-14T09:09:42;171.30;;;138.02;;
61960;SDS011;47923;42.506;24.192;2023-12-14T09:12:07;167.70;;;130.00;;
61960;SDS011;47923;42.506;24.192;2023-12-14T09:14:33;183.02;;;136.55;;
61960;SDS011;47923;42.506;24.192;2023-12-14T09:16:58;175.55;;;136.02;;
61960;SDS011;47923;42.506;24.192;2023-12-14T09:19:23;182.13;;;136.38;;
61960;SDS011;47923;42.506;24.192;2023-12-14T09:21:49;172.40;;;133.52;;
61960;SDS011;47923;42.506;24.192;2023-12-14T09:24:15;190.25;;;142.20;;
61960;SDS011;47923;42.506;24.192;2023-12-14T09:26:40;182.43;;;139.60;;
61960;SDS011;47923;42.506;24.192;2023-12-14T09:29:05;182.90;;;139.65;;
61960;SDS011;47923;42.506;24.192;2023-12-14T09:31:32;176.55;;;132.07;;
61960;SDS011;47923;42.506;24.192;2023-12-14T09:33:57;168.90;;;125.90;;
61960;SDS011;47923;42.506;24.192;2023-12-14T09:36:22;167.55;;;126.18;;
61960;SDS011;47923;42.506;24.192;2023-12-14T09:38:49;161.07;;;121.72;;
61960;SDS011;47923;42.506;24.192;2023-12-14T09:41:14;161.98;;;124.30;;
61960;SDS011;47923;42.506;24.192;2023-12-14T09:43:39;142.93;;;112.90;;
61960;SDS011;47923;42.506;24.192;2023-12-14T09:46:05;145.90;;;111.05;;
61960;SDS011;47923;42.506;24.192;2023-12-14T09:48:32;138.18;;;107.80;;
61960;SDS011;47923;42.506;24.192;2023-12-14T09:50:58;103.95;;;82.68;;
61960;SDS011;47923;42.506;24.192;2023-12-14T09:53:24;125.05;;;99.80;;
61960;SDS011;47923;42.506;24.192;2023-12-14T09:55:49;142.98;;;114.57;;
61960;SDS011;47923;42.506;24.192;2023-12-14T09:58:14;127.63;;;103.28;;
61960;SDS011;47923;42.506;24.192;2023-12-14T10:00:40;110.95;;;92.80;;
61960;SDS011;47923;42.506;24.192;2023-12-14T10:03:24;101.13;;;84.32;;
61960;SDS011;47923;42.506;24.192;2023-12-14T10:05:52;100.07;;;81.45;;
61960;SDS011;47923;42.506;24.192;2023-12-14T10:08:19;92.38;;;76.80;;
61960;SDS011;47923;42.506;24.192;2023-12-14T10:10:49;91.20;;;72.25;;
61960;SDS011;47923;42.506;24.192;2023-12-14T10:13:17;91.93;;;72.00;;
61960;SDS011;47923;42.506;24.192;2023-12-14T10:15:44;73.05;;;60.40;;
61960;SDS011;47923;42.506;24.192;2023-12-14T10:18:11;70.68;;;59.70;;
61960;SDS011;47923;42.506;24.192;2023-12-14T10:20:37;60.03;;;50.03;;
61960;SDS011;47923;42.506;24.192;2023-12-14T10:23:06;44.60;;;38.10;;
61960;SDS011;47923;42.506;24.192;2023-12-14T10:25:32;44.20;;;35.97;;
61960;SDS011;47923;42.506;24.192;2023-12-14T10:27:58;36.90;;;30.80;;
61960;SDS011;47923;42.506;24.192;2023-12-14T10:30:25;42.80;;;35.85;;
61960;SDS011;47923;42.506;24.192;2023-12-14T10:32:50;42.05;;;34.67;;
61960;SDS011;47923;42.506;24.192;2023-12-14T10:35:16;37.75;;;32.03;;
61960;SDS011;47923;42.506;24.192;2023-12-14T10:37:42;38.78;;;33.55;;
61960;SDS011;47923;42.506;24.192;2023-12-14T10:40:11;37.33;;;30.95;;
61960;SDS011;47923;42.506;24.192;2023-12-14T10:42:39;37.00;;;28.45;;
61960;SDS011;47923;42.506;24.192;2023-12-14T10:45:08;50.85;;;45.30;;
61960;SDS011;47923;42.506;24.192;2023-12-14T10:47:38;35.30;;;28.75;;
61960;SDS011;47923;42.506;24.192;2023-12-14T10:50:07;38.40;;;28.70;;
61960;SDS011;47923;42.506;24.192;2023-12-14T10:52:37;37.47;;;29.00;;
61960;SDS011;47923;42.506;24.192;2023-12-14T10:55:06;36.40;;;28.98;;
61960;SDS011;47923;42.506;24.192;2023-12-14T10:57:35;37.28;;;29.92;;
61960;SDS011;47923;42.506;24.192;2023-12-14T11:00:02;47.83;;;38.45;;
61960;SDS011;47923;42.506;24.192;2023-12-14T11:02:30;44.95;;;36.83;;
61960;SDS011;47923;42.506;24.192;2023-12-14T11:05:02;43.13;;;34.33;;
61960;SDS011;47923;42.506;24.192;2023-12-14T11:10:12;50.78;;;41.47;;
61960;SDS011;47923;42.506;24.192;2023-12-14T11:12:37;39.40;;;28.55;;
61960;SDS011;47923;42.506;24.192;2023-12-14T11:15:06;39.22;;;30.30;;
61960;SDS011;47923;42.506;24.192;2023-12-14T11:17:31;44.22;;;30.05;;
61960;SDS011;47923;42.506;24.192;2023-12-14T11:20:22;37.35;;;30.45;;
61960;SDS011;47923;42.506;24.192;2023-12-14T11:22:55;31.90;;;24.05;;
61960;SDS011;47923;42.506;24.192;2023-12-14T11:25:20;34.67;;;25.73;;
61960;SDS011;47923;42.506;24.192;2023-12-14T11:27:48;38.88;;;28.05;;
61960;SDS011;47923;42.506;24.192;2023-12-14T11:30:14;28.38;;;22.13;;
61960;SDS011;47923;42.506;24.192;2023-12-14T11:32:41;28.80;;;22.15;;
61960;SDS011;47923;42.506;24.192;2023-12-14T11:35:07;34.97;;;25.33;;
61960;SDS011;47923;42.506;24.192;2023-12-14T11:37:35;31.55;;;22.75;;
61960;SDS011;47923;42.506;24.192;2023-12-14T11:40:01;36.45;;;27.83;;
61960;SDS011;47923;42.506;24.192;2023-12-14T11:42:30;32.83;;;23.23;;
61960;SDS011;47923;42.506;24.192;2023-12-14T11:44:56;32.08;;;21.85;;
61960;SDS011;47923;42.506;24.192;2023-12-14T11:47:22;25.27;;;17.23;;
61960;SDS011;47923;42.506;24.192;2023-12-14T11:49:47;26.75;;;15.30;;
61960;SDS011;47923;42.506;24.192;2023-12-14T11:52:13;28.00;;;17.30;;
61960;SDS011;47923;42.506;24.192;2023-12-14T11:54:38;27.13;;;15.30;;
61960;SDS011;47923;42.506;24.192;2023-12-14T11:57:03;27.20;;;18.48;;
61960;SDS011;47923;42.506;24.192;2023-12-14T11:59:31;30.75;;;20.52;;
61960;SDS011;47923;42.506;24.192;2023-12-14T12:01:57;26.52;;;19.02;;
61960;SDS011;47923;42.506;24.192;2023-12-14T12:04:24;31.58;;;21.95;;
61960;SDS011;47923;42.506;24.192;2023-12-14T12:06:58;36.13;;;28.17;;
61960;SDS011;47923;42.506;24.192;2023-12-14T12:09:36;25.58;;;18.42;;
61960;SDS011;47923;42.506;24.192;2023-12-14T12:12:04;22.90;;;15.35;;
61960;SDS011;47923;42.506;24.192;2023-12-14T12:14:30;29.60;;;22.15;;
61960;SDS011;47923;42.506;24.192;2023-12-14T12:16:56;24.33;;;17.17;;
61960;SDS011;47923;42.506;24.192;2023-12-14T12:19:22;34.70;;;23.63;;
61960;SDS011;47923;42.506;24.192;2023-12-14T12:21:47;34.92;;;23.67;;
61960;SDS011;47923;42.506;24.192;2023-12-14T12:24:13;36.83;;;24.60;;
61960;SDS011;47923;42.506;24.192;2023-12-14T12:26:38;39.80;;;26.85;;
61960;SDS011;47923;42.506;24.192;2023-12-14T12:29:03;30.33;;;19.85;;
61960;SDS011;47923;42.506;24.192;2023-12-14T12:31:31;22.58;;;16.05;;
61960;SDS011;47923;42.506;24.192;2023-12-14T12:33:57;17.30;;;11.80;;
61960;SDS011;47923;42.506;24.192;2023-12-14T12:36:22;16.80;;;11.10;;
61960;SDS011;47923;42.506;24.192;2023-12-14T12:38:48;22.92;;;16.13;;
61960;SDS011;47923;42.506;24.192;2023-12-14T12:41:13;45.80;;;29.13;;
61960;SDS011;47923;42.506;24.192;2023-12-14T12:43:38;35.03;;;25.52;;
61960;SDS011;47923;42.506;24.192;2023-12-14T12:46:04;48.13;;;33.90;;
61960;SDS011;47923;42.506;24.192;2023-12-14T12:48:29;46.72;;;29.40;;
61960;SDS011;47923;42.506;24.192;2023-12-14T12:50:55;37.80;;;23.65;;
61960;SDS011;47923;42.506;24.192;2023-12-14T12:53:20;29.25;;;18.65;;
61960;SDS011;47923;42.506;24.192;2023-12-14T12:55:46;25.48;;;16.23;;
61960;SDS011;47923;42.506;24.192;2023-12-14T12:58:11;23.20;;;15.93;;
61960;SDS011;47923;42.506;24.192;2023-12-14T13:00:38;20.33;;;15.43;;
61960;SDS011;47923;42.506;24.192;2023-12-14T13:03:03;16.42;;;10.52;;
61960;SDS011;47923;42.506;24.192;2023-12-14T13:05:28;11.95;;;8.00;;
61960;SDS011;47923;42.506;24.192;2023-12-14T13:07:54;14.32;;;9.23;;
61960;SDS011;47923;42.506;24.192;2023-12-14T13:10:19;17.10;;;11.05;;
61960;SDS011;47923;42.506;24.192;2023-12-14T13:12:50;24.73;;;15.38;;
61960;SDS011;47923;42.506;24.192;2023-12-14T13:15:15;31.33;;;18.70;;
61960;SDS011;47923;42.506;24.192;2023-12-14T13:17:41;31.25;;;21.20;;
61960;SDS011;47923;42.506;24.192;2023-12-14T13:20:06;33.05;;;21.75;;
61960;SDS011;47923;42.506;24.192;2023-12-14T13:22:33;40.08;;;22.65;;
61960;SDS011;47923;42.506;24.192;2023-12-14T13:24:58;36.40;;;21.02;;
61960;SDS011;47923;42.506;24.192;2023-12-14T13:27:24;21.45;;;12.60;;
61960;SDS011;47923;42.506;24.192;2023-12-14T13:29:50;20.40;;;12.77;;
61960;SDS011;47923;42.506;24.192;2023-12-14T13:32:15;23.13;;;13.50;;
61960;SDS011;47923;42.506;24.192;2023-12-14T13:34:41;38.50;;;24.40;;
61960;SDS011;47923;42.506;24.192;2023-12-14T13:37:07;33.85;;;24.02;;
61960;SDS011;47923;42.506;24.192;2023-12-14T13:39:34;27.77;;;17.08;;
61960;SDS011;47923;42.506;24.192;2023-12-14T13:42:03;34.97;;;21.27;;
61960;SDS011;47923;42.506;24.192;2023-12-14T13:44:29;29.90;;;20.00;;
61960;SDS011;47923;42.506;24.192;2023-12-14T13:46:55;31.15;;;21.95;;
61960;SDS011;47923;42.506;24.192;2023-12-14T13:49:20;33.08;;;21.08;;
61960;SDS011;47923;42.506;24.192;2023-12-14T13:51:46;30.92;;;21.10;;
61960;SDS011;47923;42.506;24.192;2023-12-14T13:54:11;36.22;;;22.25;;